Decoded Metar for LEBL (BARCELONA in SPAIN) (IATA:BCN) | Meteo·Mobile Aviation Weather
aviador You're here:

LEBL Decoded Metar

BARCELONA in SPAIN
Report Time2018-12-15 08:30:00
UTC Time2018-12-15 08:41:57
Flight Rules vfr VFR
Wind310° at 03 kt
W.Decomp.*RWY 25: 1.5 kt HW 2.6 kt RCW
RWY 02: 1.0 kt HW 2.8 kt LCW
W.Rank310° ranks 4
Current wind is below 310° avg. (6.6)
Visibility9999 m
Phenomena:N/A
Clouds:N/A
Expected CloudBase > 1,200 ft AGL from Temp-Dew spread
CeilingNone
Temp08°C (ISA -7)
Dew Point05°C (82% RH)
AAT5.8°C
QNH1022 hPa
Density Alt-1,004 ft
Elevation20 ft
Report Wrong Elevation
Raw Report
METAR LEBL 150830Z 31003KT 250V040 CAVOK 08/05 Q1022 NOSIG=

Extra information for LEBL:More info

Metar Taf Metar & Taf Last 4 Metars F.Rules Stats Wind Profile Meteogram Temp Stats Airport Information Weather charts Add Link Nearby VenuesMetar ALERT Operation Metar Decoded Social comments